Historique des mesures à Cassis (13260), France
Quotidien Résumé Mars 23, 2018 Unités:  Métrique    US   Métrique/US
« Précédent (Jour)
Suivant (Jour) »
Quotidien Hebdomadaire Mensuel Annuel Période au choix
  Maximum: Minimum: Moyenne:
Température: TemperatureC °C 6.7 °C 10.6 °C
Point de rosée: DewpointC °C -2.4 °C 0.5 °C
Humidité: Humidity % 35 % 47 %
Vitesse du vent: 0 km/h 0 km/h 14.6 km/h
Rafales: 0 km/h - -
Vent:- - SW
Pression: PressurehPa hPa 997.9 hPa -
Précipitations: 0.0 mm    
Historical Graphs
 
 
Mesures pour : Mars 23, 2018
Heure Temperature Point de rosée Pression Vent Vitesse du vent Rafales Humidité Pluie (par heure) Conditions
TemperatureC °C DewpointC °C PressurehPa hPa Calm     Humidity % HourlyPrecipMM mm SoftwareType W/m2
00:12 7.7 °C -2.4 °C 1002.9 hPa North 21.6 km/h 23 km/h 49 % 0.0 mm open2300-1.11 W/m2
01:11 8.1 °C -2.3 °C 1002.3 hPa NW 46.8 km/h 46.8 km/h 48 % 0.0 mm open2300-1.11 W/m2
04:12 6.9 °C -0.8 °C 1000.6 hPa NNW 23 km/h 47.3 km/h 58 % 0.0 mm open2300-1.11 W/m2
05:11 6.9 °C -0.6 °C 1000.6 hPa North 18.7 km/h 62.6 km/h 59 % 0.0 mm open2300-1.11 W/m2
06:11 6.7 °C -0.3 °C 1000.2 hPa WNW 33.2 km/h 33.2 km/h 61 % 0.0 mm open2300-1.11 W/m2
07:11 7.0 °C -0.2 °C 1000.6 hPa NNW 27.2 km/h 47.3 km/h 60 % 0.0 mm open2300-1.11 W/m2
08:11 7.9 °C 0.1 °C 1000.9 hPa WNW 36.5 km/h 41.2 km/h 58 % 0.0 mm open2300-1.11 W/m2
09:11 8.5 °C 0.4 °C 1001.6 hPa WNW 21.6 km/h 21.6 km/h 57 % 0.0 mm open2300-1.11 W/m2
10:11 11.0 °C 1.8 °C 1001.6 hPa NNW 13.2 km/h 33.6 km/h 53 % 0.0 mm open2300-1.11 W/m2
11:11 12.8 °C 2.0 °C 1001.6 hPa West 11.6 km/h 37 km/h 48 % 0.0 mm open2300-1.11 W/m2
12:12 14.3 °C 2.2 °C 1001.2 hPa NW 10.3 km/h 15.6 km/h 44 % 0.0 mm open2300-1.11 W/m2
13:12 15.9 °C 3.6 °C 1001.2 hPa SE 7.6 km/h 7.6 km/h 44 % 0.0 mm open2300-1.11 W/m2
14:11 16.3 °C 1.9 °C 1000.6 hPa Calm   5.1 km/h 38 % 0.0 mm open2300-1.11 W/m2
15:11 16.1 °C 0.9 °C 1000.6 hPa South 7.6 km/h 7.6 km/h 36 % 0.0 mm open2300-1.11 W/m2
16:11 15.9 °C 0.3 °C 999.9 hPa South 2.3 km/h 19.2 km/h 35 % 0.0 mm open2300-1.11 W/m2
17:12 15.5 °C 0.4 °C 999.5 hPa SSE 7.6 km/h 7.6 km/h 36 % 0.0 mm open2300-1.11 W/m2
18:11 14.6 °C 1.4 °C 999.2 hPa Calm   2.3 km/h 41 % 0.0 mm open2300-1.11 W/m2
19:11 11.9 °C 0.9 °C 998.9 hPa Calm   2.3 km/h 47 % 0.0 mm open2300-1.11 W/m2
20:11 10.4 °C 0.9 °C 998.9 hPa Calm   4.2 km/h 52 % 0.0 mm open2300-1.11 W/m2
21:11 9.8 °C 1.2 °C 998.2 hPa Calm   1.8 km/h 55 % 0.0 mm open2300-1.11 W/m2
22:11 8.8 °C 0.4 °C 997.9 hPa West 33.6 km/h 33.6 km/h 56 % 0.0 mm open2300-1.11 W/m2
Observations météo à CASSIS
WU-History script by Weather Underground - 1 mb